Hugh R. Sharp — WDC9608 — position and weather

sailwx.info

Track history (hours):
 
Tides and Currents Weather Stations Pressure Air Temp Water Temp Dewpoint Dewpoint Depression Visibility Wind Speed Wind Dir Waves Ship Positions

Oceanographic research ship Hugh R. Sharp (USA)

Ship's website: http://www.ceoe.udel.edu/marine/rvSharp.shtml

Detailed information on ship capabilities available from University of Delaware's Ocean Information Center.

Owner: Warrior & yGulf Navigation Compan, Chickasaw, AL. More information available from US FCC via Universal Licensing System and Coast Guard Vessel Documentation Center.

Last reported at 2019-Apr-23 10:56 UTC. Time now 2019-Apr-24 22:00 UTC.
Position N 36°57' W 076°25'.

Length 48 m; draft 4 m.

Type: Other ship. MMSI: 367063060.

Date/timePositionNaut miles runAvg speedWind from/ knotsBaromVisibWave heightAir tempDewpointWater temp
2019-Apr-23 10:56N 36°57' W 076°25'0 0.6
2019-Apr-23 10:29N 36°57' W 076°25'0 0.3
2019-Apr-23 09:49N 36°57' W 076°25'0 0.1
2019-Apr-23 09:05N 36°57' W 076°26'0 0.5
2019-Apr-23 08:35N 36°57' W 076°26'0 1.4
2019-Apr-23 08:29N 36°57' W 076°26'0 0.8
2019-Apr-23 08:01N 36°57' W 076°25'1 1.3
2019-Apr-23 07:30N 36°57' W 076°26'1 1.1
2019-Apr-23 06:57N 36°57' W 076°25'0 0.6
2019-Apr-23 06:13N 36°58' W 076°26'0 0.5
2019-Apr-23 05:57N 36°57' W 076°26'0 0.3
2019-Apr-23 05:08N 36°58' W 076°26'0 0.3
2019-Apr-23 04:30N 36°57' W 076°26'0 0.2
2019-Apr-23 03:58N 36°57' W 076°25'1 0.6
2019-Apr-23 02:54N 36°58' W 076°26'1 1.7
2019-Apr-23 02:28N 36°57' W 076°26'1 2.0
2019-Apr-23 01:59N 36°58' W 076°27'1 0.4
2019-Apr-22 22:54N 36°57' W 076°25'0 0.1
2019-Apr-22 16:23N 36°57' W 076°26'0 0.2
2019-Apr-22 14:37N 36°57' W 076°25'0 0.0
2019-Apr-22 03:28N 36°58' W 076°26'1 0.1
2019-Apr-21 15:32N 36°57' W 076°24'0 1.4
2019-Apr-21 15:22N 36°58' W 076°24'2 0.9
2019-Apr-21 12:48N 36°58' W 076°21'1 1.0
2019-Apr-21 12:11N 36°58' W 076°22'3 0.3
2019-Apr-20 23:22N 36°57' W 076°26'3 0.5
2019-Apr-20 17:49N 36°58' W 076°22'0 0.0
2019-Apr-19 23:07N 36°57' W 076°22'1 6.9
2019-Apr-19 23:00N 36°58' W 076°21'109 5.9
2019-Apr-19 04:42N 38°25' W 074°59'3 9.0
2019-Apr-19 04:23N 38°27' W 074°58'4 9.5
2019-Apr-19 04:00N 38°31' W 074°58'5 9.5
2019-Apr-19 03:30N 38°36' W 074°58'6 9.4
2019-Apr-19 02:49N 38°42' W 074°59'10 3.9
2019-Apr-19 00:21N 38°47' W 075°10'0 0.0
2019-Apr-18 18:42N 38°47' W 075°10'0 0.0
2019-Apr-18 14:09N 38°47' W 075°10'0 0.0
2019-Apr-18 13:57N 38°47' W 075°10'0 0.0
2019-Apr-18 13:18N 38°47' W 075°10'0 0.0
2019-Apr-18 13:00N 38°47' W 075°10'0 0.0
2019-Apr-18 12:30N 38°47' W 075°10'0 0.0
2019-Apr-18 11:57N 38°47' W 075°10'0 0.0
2019-Apr-18 11:24N 38°47' W 075°10'0 0.0
2019-Apr-18 10:39N 38°47' W 075°10'0 0.0
2019-Apr-18 10:12N 38°47' W 075°10'0 0.0
2019-Apr-18 09:36N 38°47' W 075°10'0 0.0
2019-Apr-18 09:30N 38°47' W 075°10'0 0.0
2019-Apr-18 08:48N 38°47' W 075°10'0 0.0
2019-Apr-18 07:15N 38°47' W 075°10'0 0.0
2019-Apr-18 07:00N 38°47' W 075°10'0 0.0
2019-Apr-18 06:06N 38°47' W 075°10'0 0.0
2019-Apr-18 05:48N 38°47' W 075°10'0 0.0
2019-Apr-18 05:30N 38°47' W 075°10'0 0.0
2019-Apr-18 03:36N 38°47' W 075°10'0 0.0
2019-Apr-18 03:06N 38°47' W 075°10'0 0.0
2019-Apr-18 01:27N 38°47' W 075°10'0 0.0
2019-Apr-17 22:54N 38°47' W 075°10'0 0.0
2019-Apr-17 22:27N 38°47' W 075°10'0 0.0
2019-Apr-17 20:45N 38°47' W 075°10'0 0.0
2019-Apr-17 20:09N 38°47' W 075°10'0 0.0
2019-Apr-17 10:33N 38°47' W 075°10'0 0.0
2019-Apr-17 10:24N 38°47' W 075°10'0 0.0
2019-Apr-17 09:56N 38°47' W 075°10'0 0.0
2019-Apr-17 05:17N 38°47' W 075°10'0 0.0
2019-Apr-17 04:59N 38°47' W 075°10'0 0.0
2019-Apr-17 04:29N 38°47' W 075°10'0 0.0
2019-Apr-17 03:53N 38°47' W 075°10'0 0.0
2019-Apr-17 03:29N 38°47' W 075°10'0 0.0
2019-Apr-17 02:08N 38°47' W 075°10'0 0.0
2019-Apr-17 01:56N 38°47' W 075°10'0 0.0
2019-Apr-16 10:56N 38°47' W 075°10'0 0.0
2019-Apr-16 10:29N 38°47' W 075°10'0 0.0
2019-Apr-16 09:53N 38°47' W 075°10'0 0.0
2019-Apr-16 09:11N 38°47' W 075°10'0 0.0
2019-Apr-15 17:35N 38°47' W 075°10'0 0.0
2019-Apr-15 12:59N 38°47' W 075°10'0 0.0
2019-Apr-15 12:26N 38°47' W 075°10'0 0.0
2019-Apr-15 11:59N 38°47' W 075°10'0 0.0
2019-Apr-15 10:26N 38°47' W 075°10'0 0.0
2019-Apr-15 09:53N 38°47' W 075°10'0 0.0
2019-Apr-15 09:29N 38°47' W 075°10'0 0.0
2019-Apr-15 03:14N 38°47' W 075°10'0 0.0
2019-Apr-15 01:47N 38°47' W 075°10'0 0.0
2019-Apr-15 01:08N 38°47' W 075°10'0 0.0
2019-Apr-14 08:56N 38°47' W 075°10'0 0.0
2019-Apr-14 05:59N 38°47' W 075°10'0 0.0
2019-Apr-14 05:14N 38°47' W 075°10'0 0.0
2019-Apr-14 04:59N 38°47' W 075°10'0 0.0
2019-Apr-14 04:29N 38°47' W 075°10'0 0.0
2019-Apr-14 03:53N 38°47' W 075°10'0 0.0
2019-Apr-14 03:29N 38°47' W 075°10'0 0.0
2019-Apr-14 02:59N 38°47' W 075°10'0 0.0
2019-Apr-14 02:29N 38°47' W 075°10'0 0.0
2019-Apr-14 01:59N 38°47' W 075°10'0 0.0
2019-Apr-14 01:29N 38°47' W 075°10'0 0.0
2019-Apr-14 00:47N 38°47' W 075°10'0 0.0
2019-Apr-14 00:26N 38°47' W 075°10'0 0.0
2019-Apr-13 23:59N 38°47' W 075°10'0 0.0
2019-Apr-13 21:29N 38°47' W 075°10'0 0.0
2019-Apr-13 17:56N 38°47' W 075°10'0 0.0
2019-Apr-13 17:29N 38°47' W 075°10'0 0.0
2019-Apr-13 16:59N 38°47' W 075°10'0 0.0
2019-Apr-13 15:56N 38°47' W 075°10'0 0.0
2019-Apr-13 15:29N 38°47' W 075°10'0 0.0
2019-Apr-13 14:59N 38°47' W 075°10'  
Track history (hours):
 
Tides and Currents Weather Stations Pressure Air Temp Water Temp Dewpoint Dewpoint Depression Visibility Wind Speed Wind Dir Waves Ship Positions

Oceanographic research ship Hugh R. Sharp (USA)

Ship's website: http://www.ceoe.udel.edu/marine/rvSharp.shtml

Detailed information on ship capabilities available from University of Delaware's Ocean Information Center.

Owner: Warrior & yGulf Navigation Compan, Chickasaw, AL. More information available from US FCC via Universal Licensing System and Coast Guard Vessel Documentation Center.

Last reported at 2019-Apr-23 10:56 UTC. Time now 2019-Apr-24 22:00 UTC.
Position N 36°57' W 076°25'.

Length 48 m; draft 4 m.

Type: Other ship. MMSI: 367063060.

Date/timePositionNaut miles runAvg speedWind from/ knotsBaromVisibWave heightAir tempDewpointWater temp
2019-Apr-23 10:56N 36°57' W 076°25'0 0.6
2019-Apr-23 10:29N 36°57' W 076°25'0 0.3
2019-Apr-23 09:49N 36°57' W 076°25'0 0.1
2019-Apr-23 09:05N 36°57' W 076°26'0 0.5
2019-Apr-23 08:35N 36°57' W 076°26'0 1.4
2019-Apr-23 08:29N 36°57' W 076°26'0 0.8
2019-Apr-23 08:01N 36°57' W 076°25'1 1.3
2019-Apr-23 07:30N 36°57' W 076°26'1 1.1
2019-Apr-23 06:57N 36°57' W 076°25'0 0.6
2019-Apr-23 06:13N 36°58' W 076°26'0 0.5
2019-Apr-23 05:57N 36°57' W 076°26'0 0.3
2019-Apr-23 05:08N 36°58' W 076°26'0 0.3
2019-Apr-23 04:30N 36°57' W 076°26'0 0.2
2019-Apr-23 03:58N 36°57' W 076°25'1 0.6
2019-Apr-23 02:54N 36°58' W 076°26'1 1.7
2019-Apr-23 02:28N 36°57' W 076°26'1 2.0
2019-Apr-23 01:59N 36°58' W 076°27'1 0.4
2019-Apr-22 22:54N 36°57' W 076°25'0 0.1
2019-Apr-22 16:23N 36°57' W 076°26'0 0.2
2019-Apr-22 14:37N 36°57' W 076°25'0 0.0
2019-Apr-22 03:28N 36°58' W 076°26'1 0.1
2019-Apr-21 15:32N 36°57' W 076°24'0 1.4
2019-Apr-21 15:22N 36°58' W 076°24'2 0.9
2019-Apr-21 12:48N 36°58' W 076°21'1 1.0
2019-Apr-21 12:11N 36°58' W 076°22'3 0.3
2019-Apr-20 23:22N 36°57' W 076°26'3 0.5
2019-Apr-20 17:49N 36°58' W 076°22'0 0.0
2019-Apr-19 23:07N 36°57' W 076°22'1 6.9
2019-Apr-19 23:00N 36°58' W 076°21'109 5.9
2019-Apr-19 04:42N 38°25' W 074°59'3 9.0
2019-Apr-19 04:23N 38°27' W 074°58'4 9.5
2019-Apr-19 04:00N 38°31' W 074°58'5 9.5
2019-Apr-19 03:30N 38°36' W 074°58'6 9.4
2019-Apr-19 02:49N 38°42' W 074°59'10 3.9
2019-Apr-19 00:21N 38°47' W 075°10'0 0.0
2019-Apr-18 18:42N 38°47' W 075°10'0 0.0
2019-Apr-18 14:09N 38°47' W 075°10'0 0.0
2019-Apr-18 13:57N 38°47' W 075°10'0 0.0
2019-Apr-18 13:18N 38°47' W 075°10'0 0.0
2019-Apr-18 13:00N 38°47' W 075°10'0 0.0
2019-Apr-18 12:30N 38°47' W 075°10'0 0.0
2019-Apr-18 11:57N 38°47' W 075°10'0 0.0
2019-Apr-18 11:24N 38°47' W 075°10'0 0.0
2019-Apr-18 10:39N 38°47' W 075°10'0 0.0
2019-Apr-18 10:12N 38°47' W 075°10'0 0.0
2019-Apr-18 09:36N 38°47' W 075°10'0 0.0
2019-Apr-18 09:30N 38°47' W 075°10'0 0.0
2019-Apr-18 08:48N 38°47' W 075°10'0 0.0
2019-Apr-18 07:15N 38°47' W 075°10'0 0.0
2019-Apr-18 07:00N 38°47' W 075°10'0 0.0
2019-Apr-18 06:06N 38°47' W 075°10'0 0.0
2019-Apr-18 05:48N 38°47' W 075°10'0 0.0
2019-Apr-18 05:30N 38°47' W 075°10'0 0.0
2019-Apr-18 03:36N 38°47' W 075°10'0 0.0
2019-Apr-18 03:06N 38°47' W 075°10'0 0.0
2019-Apr-18 01:27N 38°47' W 075°10'0 0.0
2019-Apr-17 22:54N 38°47' W 075°10'0 0.0
2019-Apr-17 22:27N 38°47' W 075°10'0 0.0
2019-Apr-17 20:45N 38°47' W 075°10'0 0.0
2019-Apr-17 20:09N 38°47' W 075°10'0 0.0
2019-Apr-17 10:33N 38°47' W 075°10'0 0.0
2019-Apr-17 10:24N 38°47' W 075°10'0 0.0
2019-Apr-17 09:56N 38°47' W 075°10'0 0.0
2019-Apr-17 05:17N 38°47' W 075°10'0 0.0
2019-Apr-17 04:59N 38°47' W 075°10'0 0.0
2019-Apr-17 04:29N 38°47' W 075°10'0 0.0
2019-Apr-17 03:53N 38°47' W 075°10'0 0.0
2019-Apr-17 03:29N 38°47' W 075°10'0 0.0
2019-Apr-17 02:08N 38°47' W 075°10'0 0.0
2019-Apr-17 01:56N 38°47' W 075°10'0 0.0
2019-Apr-16 10:56N 38°47' W 075°10'0 0.0
2019-Apr-16 10:29N 38°47' W 075°10'0 0.0
2019-Apr-16 09:53N 38°47' W 075°10'0 0.0
2019-Apr-16 09:11N 38°47' W 075°10'0 0.0
2019-Apr-15 17:35N 38°47' W 075°10'0 0.0
2019-Apr-15 12:59N 38°47' W 075°10'0 0.0
2019-Apr-15 12:26N 38°47' W 075°10'0 0.0
2019-Apr-15 11:59N 38°47' W 075°10'0 0.0
2019-Apr-15 10:26N 38°47' W 075°10'0 0.0
2019-Apr-15 09:53N 38°47' W 075°10'0 0.0
2019-Apr-15 09:29N 38°47' W 075°10'0 0.0
2019-Apr-15 03:14N 38°47' W 075°10'0 0.0
2019-Apr-15 01:47N 38°47' W 075°10'0 0.0
2019-Apr-15 01:08N 38°47' W 075°10'0 0.0
2019-Apr-14 08:56N 38°47' W 075°10'0 0.0
2019-Apr-14 05:59N 38°47' W 075°10'0 0.0
2019-Apr-14 05:14N 38°47' W 075°10'0 0.0
2019-Apr-14 04:59N 38°47' W 075°10'0 0.0
2019-Apr-14 04:29N 38°47' W 075°10'0 0.0
2019-Apr-14 03:53N 38°47' W 075°10'0 0.0
2019-Apr-14 03:29N 38°47' W 075°10'0 0.0
2019-Apr-14 02:59N 38°47' W 075°10'0 0.0
2019-Apr-14 02:29N 38°47' W 075°10'0 0.0
2019-Apr-14 01:59N 38°47' W 075°10'0 0.0
2019-Apr-14 01:29N 38°47' W 075°10'0 0.0
2019-Apr-14 00:47N 38°47' W 075°10'0 0.0
2019-Apr-14 00:26N 38°47' W 075°10'0 0.0
2019-Apr-13 23:59N 38°47' W 075°10'0 0.0
2019-Apr-13 21:29N 38°47' W 075°10'0 0.0
2019-Apr-13 17:56N 38°47' W 075°10'0 0.0
2019-Apr-13 17:29N 38°47' W 075°10'0 0.0
2019-Apr-13 16:59N 38°47' W 075°10'0 0.0
2019-Apr-13 15:56N 38°47' W 075°10'0 0.0
2019-Apr-13 15:29N 38°47' W 075°10'0 0.0
2019-Apr-13 14:59N 38°47' W 075°10'  

Dump ship's entire track history